Time;durP1;ratioP1;P1;durP2;ratioP2;P2;SDS_P1;SDS_P2;PMS_P1;PMS_P2;Temp;Humidity;BMP_temperature;BMP_pressure;BME280_temperature;BME280_humidity;BME280_pressure;Samples;Min_cycle;Max_cycle;Signal;HPM_P1;HPM_P2
2022/12/08 00:01:38;;;;;;;14.13;8.50;;;0.90;99.90;;;;;;5023586;28;20252;-58
2022/12/08 00:04:04;;;;;;;12.87;7.70;;;0.90;99.90;;;;;;5021046;28;20437;-59
2022/12/08 00:09:25;;;;;;;12.60;8.30;;;0.90;99.90;;;;;;5022492;28;20531;-59
2022/12/08 00:12:00;;;;;;;13.00;8.43;;;0.90;99.90;;;;;;5020840;28;21165;-58
2022/12/08 00:14:30;;;;;;;13.37;6.93;;;0.90;99.90;;;;;;5025132;28;20464;-58
2022/12/08 00:16:56;;;;;;;14.20;7.87;;;0.80;99.90;;;;;;5020772;28;20527;-58
2022/12/08 00:19:23;;;;;;;17.90;9.70;;;0.80;99.90;;;;;;5025214;28;20434;-58
2022/12/08 00:21:49;;;;;;;17.20;8.17;;;0.80;99.90;;;;;;5005613;28;20526;-58
2022/12/08 00:24:14;;;;;;;17.20;8.63;;;0.80;99.90;;;;;;5024124;28;20430;-58
2022/12/08 00:26:40;;;;;;;17.30;8.63;;;0.80;99.90;;;;;;5021433;28;20931;-58
2022/12/08 00:29:06;;;;;;;13.37;8.90;;;0.80;99.90;;;;;;5022973;28;20228;-58
2022/12/08 00:31:31;;;;;;;16.80;8.87;;;0.80;99.90;;;;;;5029522;28;20183;-59
2022/12/08 00:33:58;;;;;;;22.07;9.40;;;0.90;99.90;;;;;;5028664;28;20186;-59
2022/12/08 00:36:23;;;;;;;18.07;8.90;;;0.80;99.90;;;;;;5024160;28;20200;-58
2022/12/08 00:38:49;;;;;;;16.37;8.90;;;0.80;99.90;;;;;;5028214;28;20422;-58
2022/12/08 00:41:17;;;;;;;18.20;8.77;;;0.80;99.90;;;;;;5025840;28;20187;-59
2022/12/08 00:43:43;;;;;;;15.37;8.93;;;0.80;99.90;;;;;;5023843;28;20183;-58
2022/12/08 00:46:10;;;;;;;14.50;9.27;;;0.80;99.90;;;;;;5029439;28;20420;-58
2022/12/08 00:48:36;;;;;;;17.70;9.50;;;0.80;99.90;;;;;;5009858;28;22499;-59
2022/12/08 00:51:02;;;;;;;15.33;8.90;;;0.70;99.90;;;;;;5027486;28;20418;-59
2022/12/08 00:53:29;;;;;;;11.87;8.47;;;0.70;99.90;;;;;;5004729;28;20179;-58
2022/12/08 00:55:54;;;;;;;16.43;10.00;;;0.70;99.90;;;;;;5028882;28;20231;-58
2022/12/08 00:58:20;;;;;;;16.37;9.07;;;0.70;99.90;;;;;;5022942;28;20506;-59
2022/12/08 01:00:45;;;;;;;15.50;7.67;;;0.70;99.90;;;;;;5022549;28;20174;-58
2022/12/08 01:03:11;;;;;;;13.17;7.90;;;0.70;99.90;;;;;;5022364;28;20198;-58
2022/12/08 01:05:38;;;;;;;10.87;7.20;;;0.70;99.90;;;;;;5015613;28;20781;-58
2022/12/08 01:08:07;;;;;;;8.63;6.07;;;0.70;99.90;;;;;;5029377;28;20430;-59
2022/12/08 01:10:38;;;;;;;11.70;7.13;;;0.70;99.90;;;;;;5008963;28;20429;-58
2022/12/08 01:13:04;;;;;;;14.93;6.57;;;0.70;99.90;;;;;;5024853;28;20934;-59
2022/12/08 01:15:30;;;;;;;12.80;6.60;;;0.70;99.90;;;;;;5027424;28;20461;-59
2022/12/08 01:17:55;;;;;;;8.93;6.50;;;0.60;99.90;;;;;;5022330;28;20477;-58
2022/12/08 01:20:21;;;;;;;12.47;7.00;;;0.60;99.90;;;;;;5028716;28;20192;-58
2022/12/08 01:22:47;;;;;;;9.40;6.17;;;0.60;99.90;;;;;;5020150;28;20174;-58
2022/12/08 01:25:12;;;;;;;13.43;8.10;;;0.60;99.90;;;;;;5027691;28;20186;-58
2022/12/08 01:27:38;;;;;;;11.07;6.97;;;0.60;99.90;;;;;;5018726;28;20262;-58
2022/12/08 01:30:04;;;;;;;11.93;6.33;;;0.50;99.90;;;;;;5022482;28;20185;-59
2022/12/08 01:32:30;;;;;;;8.67;5.40;;;0.50;99.90;;;;;;5025319;28;20172;-58
2022/12/08 01:34:55;;;;;;;9.10;6.07;;;0.50;99.90;;;;;;5002303;28;20815;-58
2022/12/08 01:37:21;;;;;;;9.87;6.17;;;0.40;99.90;;;;;;5025035;28;20212;-58
2022/12/08 01:39:47;;;;;;;13.17;6.83;;;0.40;99.90;;;;;;5024301;28;20824;-58
2022/12/08 01:42:20;;;;;;;12.10;6.43;;;0.40;99.90;;;;;;5021404;28;20179;-59
2022/12/08 01:44:53;;;;;;;11.73;5.97;;;0.40;99.90;;;;;;5022416;28;20179;-58
2022/12/08 01:47:21;;;;;;;12.17;6.10;;;0.30;99.90;;;;;;5024548;28;20460;-58
2022/12/08 01:49:47;;;;;;;8.87;5.63;;;0.30;99.90;;;;;;5019721;28;20484;-59
2022/12/08 01:52:32;;;;;;;8.93;5.77;;;0.30;99.90;;;;;;5002409;28;20537;-58
2022/12/08 01:55:29;;;;;;;10.57;6.13;;;0.30;99.90;;;;;;5006926;28;20186;-58
2022/12/08 01:58:15;;;;;;;10.10;5.73;;;0.30;99.90;;;;;;5017161;28;20497;-58
2022/12/08 02:00:41;;;;;;;8.67;5.83;;;0.30;99.90;;;;;;5025284;28;20471;-59
2022/12/08 02:03:14;;;;;;;13.30;7.87;;;0.30;99.90;;;;;;5020198;28;20449;-58
2022/12/08 02:05:40;;;;;;;19.93;8.13;;;0.20;99.90;;;;;;5021785;28;20531;-60
2022/12/08 02:08:09;;;;;;;15.53;7.70;;;0.20;99.90;;;;;;5023846;28;21054;-58
2022/12/08 02:10:38;;;;;;;13.50;7.60;;;0.20;99.90;;;;;;5021657;28;20437;-58
2022/12/08 02:13:06;;;;;;;13.63;7.30;;;0.20;99.90;;;;;;5015128;28;20442;-58
2022/12/08 02:15:47;;;;;;;11.80;6.60;;;0.20;99.90;;;;;;5026895;28;20524;-58
2022/12/08 02:18:33;;;;;;;8.17;5.20;;;0.10;99.90;;;;;;5021846;28;20457;-58
2022/12/08 02:21:15;;;;;;;7.90;5.50;;;0.10;99.90;;;;;;5022988;28;20515;-58
2022/12/08 02:23:58;;;;;;;7.20;4.80;;;0.10;99.90;;;;;;5022590;28;20440;-59
2022/12/08 02:27:04;;;;;;;10.43;5.07;;;0.10;99.90;;;;;;5020452;28;20461;-59
2022/12/08 02:29:57;;;;;;;8.07;4.83;;;0.10;99.90;;;;;;5022800;28;20437;-58
2022/12/08 02:32:41;;;;;;;11.70;6.10;;;0.10;99.90;;;;;;5016929;28;20436;-59
2022/12/08 02:35:25;;;;;;;12.30;6.50;;;0.10;99.90;;;;;;5027314;28;20420;-59
2022/12/08 02:37:59;;;;;;;13.53;6.87;;;0.10;99.90;;;;;;5028364;28;20484;-59
2022/12/08 02:40:36;;;;;;;9.60;6.83;;;0.20;99.90;;;;;;5024479;28;20514;-58
2022/12/08 02:43:15;;;;;;;10.57;5.60;;;0.20;99.90;;;;;;5022606;28;20425;-58
2022/12/08 02:45:50;;;;;;;12.80;6.40;;;0.20;99.90;;;;;;5017429;28;20480;-58
2022/12/08 02:48:16;;;;;;;12.60;6.70;;;0.20;99.90;;;;;;5034321;28;20843;-58
2022/12/08 02:50:42;;;;;;;12.97;6.23;;;0.20;99.90;;;;;;5030203;28;20525;-58
2022/12/08 02:53:08;;;;;;;8.70;5.97;;;0.20;99.90;;;;;;5026762;28;20185;-59
2022/12/08 02:55:55;;;;;;;9.50;5.97;;;0.10;99.90;;;;;;5026167;28;20872;-59
2022/12/08 02:58:44;;;;;;;10.80;5.63;;;0.10;99.90;;;;;;5021915;28;20492;-57
2022/12/08 03:01:09;;;;;;;9.00;5.30;;;0.10;99.90;;;;;;5006486;28;20426;-58
2022/12/08 03:04:01;;;;;;;9.57;5.47;;;0.10;99.90;;;;;;5026970;28;20436;-58
2022/12/08 03:06:33;;;;;;;10.87;5.53;;;0.00;99.90;;;;;;5029453;28;20171;-58
2022/12/08 03:09:09;;;;;;;13.07;5.77;;;0.00;99.90;;;;;;5024338;28;20414;-59
2022/12/08 03:11:47;;;;;;;10.60;5.17;;;0.00;99.90;;;;;;4994735;28;20421;-59
2022/12/08 03:14:16;;;;;;;9.00;5.20;;;-0.10;99.90;;;;;;5022986;28;20436;-59
2022/12/08 03:16:47;;;;;;;7.83;5.23;;;-0.10;99.90;;;;;;5027059;28;20830;-59
2022/12/08 03:19:18;;;;;;;9.60;4.60;;;-0.10;99.90;;;;;;5023298;28;20443;-58
2022/12/08 03:21:50;;;;;;;6.03;3.83;;;-0.10;99.90;;;;;;5030660;28;20416;-59
2022/12/08 03:24:18;;;;;;;5.83;3.57;;;-0.10;99.90;;;;;;5027974;28;20432;-59
2022/12/08 03:26:52;;;;;;;7.03;3.40;;;-0.10;99.90;;;;;;5025292;28;20949;-57
2022/12/08 03:29:18;;;;;;;6.50;4.10;;;-0.10;99.90;;;;;;5019455;28;20438;-59
2022/12/08 03:31:51;;;;;;;5.63;3.50;;;-0.20;99.90;;;;;;5024003;28;20928;-59
2022/12/08 03:34:17;;;;;;;4.30;3.07;;;-0.20;99.90;;;;;;5017072;28;20508;-58
2022/12/08 03:36:44;;;;;;;7.30;3.47;;;-0.10;99.90;;;;;;5015625;28;20471;-58
2022/12/08 03:39:10;;;;;;;7.63;5.03;;;-0.20;99.90;;;;;;5020230;28;20494;-59
2022/12/08 03:41:35;;;;;;;4.30;3.13;;;-0.20;99.90;;;;;;5027952;28;20882;-59
2022/12/08 03:44:01;;;;;;;5.57;3.70;;;-0.20;99.90;;;;;;5018939;28;20175;-58
2022/12/08 03:46:29;;;;;;;5.50;3.30;;;-0.20;99.90;;;;;;5023617;28;20174;-59
2022/12/08 03:48:55;;;;;;;6.47;3.73;;;-0.20;99.90;;;;;;5027119;28;20193;-57
2022/12/08 03:51:21;;;;;;;6.40;3.80;;;-0.20;99.90;;;;;;5023427;28;20803;-59
2022/12/08 03:53:47;;;;;;;3.83;3.27;;;-0.20;99.90;;;;;;5020101;28;20258;-59
2022/12/08 03:56:32;;;;;;;4.47;2.83;;;-0.30;99.90;;;;;;5008128;28;20563;-59
2022/12/08 03:58:58;;;;;;;4.00;3.10;;;-0.30;99.90;;;;;;5021307;28;20486;-59
2022/12/08 04:01:24;;;;;;;5.30;3.43;;;-0.20;99.90;;;;;;5023570;28;20548;-59
2022/12/08 04:03:51;;;;;;;4.30;3.30;;;-0.20;99.90;;;;;;5025808;28;20211;-58
2022/12/08 04:06:17;;;;;;;4.33;3.50;;;-0.20;99.90;;;;;;5028467;28;20442;-59
2022/12/08 04:08:43;;;;;;;4.97;3.57;;;-0.20;99.90;;;;;;5023983;28;20224;-58
2022/12/08 04:11:09;;;;;;;5.23;4.10;;;-0.20;99.90;;;;;;5021581;28;20440;-59
2022/12/08 04:13:37;;;;;;;6.47;3.67;;;-0.10;99.90;;;;;;5018691;28;20217;-59
2022/12/08 04:16:04;;;;;;;4.70;3.50;;;-0.10;99.90;;;;;;5024365;28;20547;-59
2022/12/08 04:18:30;;;;;;;5.80;3.90;;;-0.10;99.90;;;;;;5025107;28;20484;-58
2022/12/08 04:20:55;;;;;;;6.47;3.97;;;-0.10;99.90;;;;;;5024665;28;22369;-59
2022/12/08 04:23:21;;;;;;;7.93;4.37;;;-0.10;99.90;;;;;;5028455;28;20413;-59
2022/12/08 04:25:47;;;;;;;6.87;4.80;;;-0.10;99.90;;;;;;5024489;28;20187;-59
2022/12/08 04:28:12;;;;;;;5.90;3.70;;;-0.10;99.90;;;;;;5007185;28;20558;-58
2022/12/08 04:30:38;;;;;;;4.50;3.67;;;-0.10;99.90;;;;;;5010441;28;20392;-58
2022/12/08 04:33:04;;;;;;;5.83;4.13;;;-0.10;99.90;;;;;;5026906;28;20197;-59
2022/12/08 04:35:30;;;;;;;6.90;4.87;;;-0.10;99.90;;;;;;5025563;28;20439;-58
2022/12/08 04:37:56;;;;;;;10.73;4.83;;;-0.10;99.90;;;;;;5028487;28;20491;-59
2022/12/08 04:40:22;;;;;;;8.93;5.67;;;-0.10;99.90;;;;;;5026097;28;20190;-59
2022/12/08 04:42:47;;;;;;;10.20;5.67;;;-0.10;99.90;;;;;;5021476;28;20662;-60
2022/12/08 04:45:13;;;;;;;10.47;5.73;;;-0.10;99.90;;;;;;5025938;28;20432;-59
2022/12/08 04:47:39;;;;;;;8.93;5.60;;;-0.10;99.90;;;;;;5028974;28;20217;-59
2022/12/08 04:50:06;;;;;;;10.23;6.60;;;-0.10;99.90;;;;;;5027199;28;20434;-59
2022/12/08 04:52:31;;;;;;;9.20;6.40;;;-0.10;99.90;;;;;;5025078;28;20190;-58
2022/12/08 04:54:57;;;;;;;9.30;6.07;;;-0.10;99.90;;;;;;5016055;28;20445;-59
2022/12/08 04:57:23;;;;;;;7.70;4.53;;;-0.10;99.90;;;;;;5020505;28;20264;-58
2022/12/08 04:59:48;;;;;;;8.07;4.80;;;-0.10;99.90;;;;;;5017174;28;20178;-57
2022/12/08 05:02:14;;;;;;;9.17;5.13;;;-0.10;99.90;;;;;;5006076;28;20549;-57
2022/12/08 05:04:40;;;;;;;7.33;5.50;;;-0.10;99.90;;;;;;5015349;28;20262;-59
2022/12/08 05:07:05;;;;;;;11.70;4.83;;;-0.10;99.90;;;;;;5023912;28;20217;-59
2022/12/08 05:09:31;;;;;;;7.87;5.60;;;0.00;99.90;;;;;;5011082;28;20188;-59
2022/12/08 05:11:57;;;;;;;9.07;5.60;;;0.00;99.90;;;;;;5017360;28;20647;-58
2022/12/08 05:14:22;;;;;;;11.10;5.70;;;0.00;99.90;;;;;;5011506;28;20697;-59
2022/12/08 05:16:48;;;;;;;10.73;6.60;;;0.00;99.90;;;;;;5022346;28;20221;-59
2022/12/08 05:19:14;;;;;;;9.73;6.03;;;0.00;99.90;;;;;;5015179;28;20787;-60
2022/12/08 05:21:41;;;;;;;11.57;6.43;;;0.00;99.90;;;;;;5021099;28;20274;-58
2022/12/08 05:24:08;;;;;;;11.03;5.80;;;0.00;99.90;;;;;;5024104;28;20801;-59
2022/12/08 05:26:33;;;;;;;15.13;5.77;;;-0.10;99.90;;;;;;5026484;28;20533;-59
2022/12/08 05:28:59;;;;;;;10.90;6.20;;;-0.10;99.90;;;;;;5019668;28;20910;-59
2022/12/08 05:31:25;;;;;;;9.50;6.07;;;-0.10;99.90;;;;;;5023864;28;20197;-59
2022/12/08 05:33:51;;;;;;;11.10;7.50;;;-0.20;99.90;;;;;;5019635;28;20183;-59
2022/12/08 05:36:18;;;;;;;10.07;7.17;;;-0.10;99.90;;;;;;5020292;28;20250;-58
2022/12/08 05:38:44;;;;;;;13.90;7.37;;;-0.20;99.90;;;;;;5022606;28;20467;-58
2022/12/08 05:41:14;;;;;;;11.40;5.10;;;-0.20;99.90;;;;;;4998963;28;20442;-58
2022/12/08 05:43:40;;;;;;;8.00;4.77;;;-0.30;99.90;;;;;;5021783;28;20431;-59
2022/12/08 05:46:07;;;;;;;8.83;4.67;;;-0.30;99.90;;;;;;5016524;28;20436;-59
2022/12/08 05:48:34;;;;;;;7.00;4.83;;;-0.40;99.90;;;;;;5011961;28;20242;-57
2022/12/08 05:51:00;;;;;;;8.57;5.37;;;-0.40;99.90;;;;;;5008864;28;20953;-59
2022/12/08 05:53:26;;;;;;;7.60;4.80;;;-0.50;99.90;;;;;;5017723;28;20467;-58
2022/12/08 05:55:52;;;;;;;9.50;5.40;;;-0.50;99.90;;;;;;5018493;28;20878;-58
2022/12/08 05:58:20;;;;;;;9.23;5.07;;;-0.50;99.90;;;;;;5019600;28;21010;-55
2022/12/08 06:00:47;;;;;;;8.50;5.67;;;-0.60;99.90;;;;;;5008472;28;20221;-59
2022/12/08 06:03:15;;;;;;;10.03;5.33;;;-0.60;99.90;;;;;;5019974;28;20432;-58
2022/12/08 06:05:41;;;;;;;8.07;5.20;;;-0.70;99.90;;;;;;5005166;28;20436;-58
2022/12/08 06:08:08;;;;;;;13.23;5.13;;;-0.70;99.90;;;;;;5019280;28;20520;-58
2022/12/08 06:10:33;;;;;;;6.80;5.00;;;-0.80;99.90;;;;;;5015307;28;20436;-59
2022/12/08 06:12:59;;;;;;;7.87;4.67;;;-0.80;99.90;;;;;;5007156;28;20511;-59
2022/12/08 06:15:25;;;;;;;10.63;5.27;;;-0.80;99.90;;;;;;5023003;28;20624;-58
2022/12/08 06:17:51;;;;;;;6.63;4.70;;;-0.90;99.90;;;;;;5026067;28;20467;-59
2022/12/08 06:20:16;;;;;;;8.33;5.10;;;-0.90;99.90;;;;;;5031636;28;20308;-58
2022/12/08 06:22:42;;;;;;;7.70;4.87;;;-0.90;99.90;;;;;;5025842;28;20179;-58
2022/12/08 06:25:08;;;;;;;7.40;5.20;;;-1.00;99.90;;;;;;5027858;28;20743;-58
2022/12/08 06:27:34;;;;;;;11.50;7.23;;;-1.00;99.90;;;;;;5024937;28;20228;-59
2022/12/08 06:29:59;;;;;;;11.80;7.07;;;-1.00;99.90;;;;;;5025801;28;20501;-58
2022/12/08 06:32:25;;;;;;;18.83;8.73;;;-1.00;99.90;;;;;;5031154;28;20202;-59
2022/12/08 06:34:51;;;;;;;17.83;8.17;;;-1.00;99.90;;;;;;5025200;28;20642;-58
2022/12/08 06:37:17;;;;;;;12.73;7.10;;;-1.00;99.90;;;;;;5028175;28;20527;-59
2022/12/08 06:39:43;;;;;;;15.03;6.80;;;-1.00;99.90;;;;;;5023984;28;20186;-58
2022/12/08 06:44:52;;;;;;;11.87;7.20;;;-1.10;99.90;;;;;;5024786;28;20732;-59
2022/12/08 06:47:20;;;;;;;12.97;7.93;;;-1.10;99.90;;;;;;5006627;28;20448;-58
2022/12/08 06:49:46;;;;;;;16.73;10.37;;;-1.10;99.90;;;;;;5030390;28;20657;-57
2022/12/08 06:52:11;;;;;;;18.37;10.50;;;-1.10;99.90;;;;;;5027521;28;20443;-59
2022/12/08 06:54:37;;;;;;;12.70;8.07;;;-1.20;99.90;;;;;;5024869;28;20218;-58
2022/12/08 06:57:03;;;;;;;16.03;6.53;;;-1.20;99.90;;;;;;5026569;28;20259;-58
2022/12/08 06:59:29;;;;;;;8.80;5.60;;;-1.20;99.90;;;;;;5029102;28;20182;-58
2022/12/08 07:01:54;;;;;;;13.67;5.83;;;-1.30;99.90;;;;;;5029291;28;20425;-58
2022/12/08 07:04:20;;;;;;;7.30;4.30;;;-1.30;99.90;;;;;;5023036;28;20174;-58
2022/12/08 07:06:46;;;;;;;8.80;5.00;;;-1.30;99.90;;;;;;5027987;28;20182;-59
2022/12/08 07:09:11;;;;;;;6.60;5.33;;;-1.30;99.90;;;;;;5028593;28;20186;-58
2022/12/08 07:11:38;;;;;;;8.20;5.20;;;-1.30;99.90;;;;;;5029869;28;20181;-58
2022/12/08 07:14:03;;;;;;;10.23;5.73;;;-1.40;99.90;;;;;;5011499;28;20189;-59
2022/12/08 07:16:29;;;;;;;12.40;5.50;;;-1.40;99.90;;;;;;5020092;28;20501;-58
2022/12/08 07:18:55;;;;;;;8.07;4.63;;;-1.40;99.90;;;;;;5019759;28;20244;-59
2022/12/08 07:21:20;;;;;;;5.80;4.30;;;-1.40;99.90;;;;;;5028424;28;20222;-58
2022/12/08 07:23:47;;;;;;;17.13;8.40;;;-1.40;99.90;;;;;;5020730;28;20327;-58
2022/12/08 07:26:13;;;;;;;19.80;9.80;;;-1.40;99.90;;;;;;5017253;28;20646;-58
2022/12/08 07:28:40;;;;;;;16.87;9.50;;;-1.40;99.90;;;;;;5007848;28;20992;-58
2022/12/08 07:31:14;;;;;;;12.20;6.87;;;-1.40;99.90;;;;;;5024518;28;20238;-57
2022/12/08 07:33:40;;;;;;;11.20;7.10;;;-1.40;99.90;;;;;;5028841;28;20526;-58
2022/12/08 07:36:06;;;;;;;18.10;8.90;;;-1.40;99.90;;;;;;5026114;28;20965;-57
2022/12/08 07:38:32;;;;;;;18.20;9.87;;;-1.40;99.90;;;;;;5025915;28;20206;-58
2022/12/08 07:40:58;;;;;;;30.37;8.00;;;-1.40;99.90;;;;;;5026957;28;20523;-57
2022/12/08 07:43:24;;;;;;;13.83;6.93;;;-1.50;99.90;;;;;;5010730;28;20484;-58
2022/12/08 07:45:50;;;;;;;8.63;5.20;;;-1.40;99.90;;;;;;5022774;28;20507;-58
2022/12/08 07:48:16;;;;;;;8.47;5.40;;;-1.40;99.90;;;;;;5019869;28;20222;-58
2022/12/08 07:50:42;;;;;;;11.80;5.40;;;-1.50;99.90;;;;;;5024823;28;20463;-58
2022/12/08 07:53:08;;;;;;;8.00;4.90;;;-1.40;99.90;;;;;;5026806;28;20467;-60
2022/12/08 07:55:33;;;;;;;12.33;4.07;;;-1.40;99.90;;;;;;5026634;28;20250;-58
2022/12/08 07:57:59;;;;;;;8.17;4.97;;;-1.40;99.90;;;;;;5024089;28;20220;-58
2022/12/08 08:00:25;;;;;;;9.07;5.27;;;-1.40;99.90;;;;;;5029110;28;20200;-58
2022/12/08 08:02:50;;;;;;;10.93;6.20;;;-1.30;99.90;;;;;;5024855;28;20200;-58
2022/12/08 08:05:16;;;;;;;7.70;3.80;;;-1.20;99.90;;;;;;5027334;28;20173;-58
2022/12/08 08:07:42;;;;;;;9.30;5.30;;;-1.20;99.90;;;;;;5022784;28;20206;-58
2022/12/08 08:10:09;;;;;;;12.50;6.10;;;-1.20;99.90;;;;;;5030349;28;20641;-58
2022/12/08 08:12:36;;;;;;;11.57;5.87;;;-1.20;99.90;;;;;;5010850;28;20444;-57
2022/12/08 08:15:06;;;;;;;8.67;5.57;;;-1.10;99.90;;;;;;5027662;28;20436;-58
2022/12/08 08:17:32;;;;;;;12.00;6.70;;;-1.10;99.90;;;;;;5028665;28;20469;-58
2022/12/08 08:19:58;;;;;;;10.90;6.13;;;-1.10;99.90;;;;;;5011922;28;20435;-58
2022/12/08 08:22:25;;;;;;;16.23;7.33;;;-1.00;99.90;;;;;;5027397;28;20428;-58
2022/12/08 08:24:51;;;;;;;11.67;6.87;;;-1.00;99.90;;;;;;5021109;28;20448;-58
2022/12/08 08:27:17;;;;;;;14.53;7.87;;;-1.00;99.90;;;;;;5005729;28;20552;-58
2022/12/08 08:29:43;;;;;;;13.07;7.53;;;-1.10;99.90;;;;;;5027892;28;20505;-58
2022/12/08 08:32:08;;;;;;;11.83;7.10;;;-1.00;99.90;;;;;;5025271;28;20193;-58
2022/12/08 08:34:34;;;;;;;15.50;7.37;;;-1.00;99.90;;;;;;5025289;28;20664;-58
2022/12/08 08:36:59;;;;;;;11.03;7.37;;;-0.90;99.90;;;;;;5010243;28;20301;-58
2022/12/08 08:39:25;;;;;;;13.03;7.70;;;-0.90;99.90;;;;;;5015749;28;20836;-58
2022/12/08 08:41:51;;;;;;;11.37;6.87;;;-0.90;99.90;;;;;;5027327;28;20832;-59
2022/12/08 08:44:16;;;;;;;12.70;6.27;;;-0.80;99.90;;;;;;5003478;28;20183;-58
2022/12/08 08:46:42;;;;;;;12.43;6.63;;;-0.80;99.90;;;;;;5020860;28;20646;-58
2022/12/08 08:49:08;;;;;;;12.77;7.10;;;-0.70;99.90;;;;;;5029960;28;20185;-56
2022/12/08 08:51:33;;;;;;;17.37;7.30;;;-0.60;99.90;;;;;;5002133;28;20269;-58
2022/12/08 08:53:59;;;;;;;14.63;7.10;;;-0.60;99.90;;;;;;5021744;28;20183;-58
2022/12/08 08:56:24;;;;;;;18.10;7.43;;;-0.60;99.90;;;;;;5026243;28;20850;-59
2022/12/08 08:58:52;;;;;;;23.23;10.03;;;-0.60;99.90;;;;;;5029694;28;20244;-58
2022/12/08 09:01:25;;;;;;;22.03;10.27;;;-0.50;99.90;;;;;;5023772;28;20173;-58
2022/12/08 09:03:52;;;;;;;26.60;13.03;;;-0.50;99.90;;;;;;5024299;28;20488;-58
2022/12/08 09:06:18;;;;;;;26.97;12.47;;;-0.50;99.90;;;;;;5029581;28;20412;-58
2022/12/08 09:08:45;;;;;;;25.30;11.90;;;-0.50;99.90;;;;;;5028044;28;20443;-58
2022/12/08 09:11:11;;;;;;;21.40;10.13;;;-0.40;99.90;;;;;;5005636;28;20511;-57
2022/12/08 09:13:37;;;;;;;24.10;11.13;;;-0.40;99.90;;;;;;5019861;28;20432;-58
2022/12/08 09:16:04;;;;;;;25.80;12.70;;;-0.40;99.90;;;;;;5011170;28;20432;-59
2022/12/08 09:18:30;;;;;;;29.90;12.27;;;-0.30;99.90;;;;;;5029084;28;20190;-58
2022/12/08 09:21:02;;;;;;;29.47;13.00;;;-0.30;99.90;;;;;;5029609;28;20956;-58
2022/12/08 09:23:27;;;;;;;36.23;14.37;;;-0.20;99.90;;;;;;5025044;28;20428;-59
2022/12/08 09:25:53;;;;;;;38.77;15.87;;;-0.20;99.90;;;;;;5005591;28;20975;-58
2022/12/08 09:28:18;;;;;;;35.97;15.43;;;-0.20;99.90;;;;;;5009685;28;20198;-58
2022/12/08 09:30:44;;;;;;;30.43;14.40;;;-0.10;99.90;;;;;;5024361;28;20209;-59
2022/12/08 09:33:09;;;;;;;29.93;13.40;;;-0.10;99.90;;;;;;5029486;28;20217;-58
2022/12/08 09:35:35;;;;;;;35.17;14.03;;;-0.10;99.90;;;;;;5029825;28;20654;-57
2022/12/08 09:38:01;;;;;;;37.67;16.13;;;0.00;99.90;;;;;;5028799;28;20205;-57
2022/12/08 09:40:29;;;;;;;38.27;14.73;;;0.00;99.90;;;;;;5026368;28;20681;-58
2022/12/08 09:43:37;;;;;;;25.83;11.00;;;0.00;99.90;;;;;;5020592;28;20260;-58
2022/12/08 09:46:12;;;;;;;24.10;11.80;;;0.00;99.90;;;;;;5022265;28;20450;-58
2022/12/08 09:48:46;;;;;;;21.70;11.30;;;0.10;99.90;;;;;;5021315;28;20470;-58
2022/12/08 09:51:14;;;;;;;27.73;11.40;;;0.10;99.90;;;;;;5012250;28;20604;-57
2022/12/08 09:53:43;;;;;;;21.20;11.23;;;0.10;99.90;;;;;;5030967;28;20439;-58
2022/12/08 09:56:29;;;;;;;27.50;12.23;;;0.20;99.90;;;;;;5031820;28;20444;-58
2022/12/08 09:59:10;;;;;;;25.33;11.73;;;0.20;99.90;;;;;;5030039;28;20453;-59
2022/12/08 10:01:40;;;;;;;27.00;10.40;;;0.30;99.90;;;;;;5024700;28;20520;-58
2022/12/08 10:04:25;;;;;;;25.30;10.03;;;0.40;99.90;;;;;;5024584;28;20789;-58
2022/12/08 10:07:20;;;;;;;20.20;9.40;;;0.50;99.90;;;;;;5029057;28;20433;-58
2022/12/08 10:09:51;;;;;;;20.70;9.50;;;0.50;99.90;;;;;;5015665;28;20451;-60
2022/12/08 10:12:35;;;;;;;20.67;10.33;;;0.60;99.90;;;;;;5021177;28;20429;-58
2022/12/08 10:15:22;;;;;;;20.37;10.30;;;0.60;99.90;;;;;;5025823;28;20447;-58
2022/12/08 10:17:50;;;;;;;21.07;9.53;;;0.60;99.90;;;;;;5025804;28;20465;-59
2022/12/08 10:20:19;;;;;;;15.00;8.20;;;0.60;99.90;;;;;;5029501;28;20468;-59
2022/12/08 10:22:48;;;;;;;18.70;8.90;;;0.60;99.90;;;;;;5027909;28;20524;-57
2022/12/08 10:25:20;;;;;;;15.80;7.70;;;0.70;99.90;;;;;;5023184;28;21025;-58
2022/12/08 10:27:50;;;;;;;18.50;8.30;;;0.70;99.90;;;;;;5025759;28;20471;-60
2022/12/08 10:30:17;;;;;;;18.10;8.87;;;0.80;99.90;;;;;;5029383;28;20441;-57
2022/12/08 10:32:46;;;;;;;13.43;8.27;;;0.80;99.90;;;;;;5022108;28;20517;-58
2022/12/08 10:35:15;;;;;;;14.47;7.70;;;0.80;99.90;;;;;;5024545;28;20875;-60
2022/12/08 10:37:56;;;;;;;17.87;9.07;;;0.90;99.90;;;;;;5022394;28;20527;-59
2022/12/08 10:40:23;;;;;;;21.00;9.10;;;0.80;99.90;;;;;;5026050;28;20479;-60
2022/12/08 10:42:55;;;;;;;22.73;9.70;;;0.90;99.90;;;;;;5029727;28;20433;-58
2022/12/08 10:45:25;;;;;;;17.47;9.40;;;0.90;99.90;;;;;;5027731;28;20486;-58
2022/12/08 10:48:01;;;;;;;19.20;8.93;;;0.90;99.90;;;;;;5023423;28;20465;-59
2022/12/08 10:50:31;;;;;;;16.97;8.43;;;1.00;99.90;;;;;;5014615;28;20513;-58
2022/12/08 10:53:12;;;;;;;21.87;8.80;;;1.00;99.90;;;;;;5026476;28;20459;-58
2022/12/08 10:56:00;;;;;;;13.90;8.00;;;1.10;99.90;;;;;;5027023;28;20460;-58
2022/12/08 10:58:39;;;;;;;18.53;8.77;;;1.10;99.90;;;;;;5008876;28;20505;-58
2022/12/08 11:01:19;;;;;;;17.57;8.30;;;1.20;99.90;;;;;;5028417;28;20422;-59
2022/12/08 11:03:51;;;;;;;13.90;7.57;;;1.20;99.90;;;;;;5020150;28;20589;-58
2022/12/08 11:06:29;;;;;;;16.37;7.90;;;1.30;99.90;;;;;;5001099;28;20428;-58
2022/12/08 11:08:57;;;;;;;16.80;9.20;;;1.30;99.90;;;;;;5022825;28;20821;-58
2022/12/08 11:11:42;;;;;;;16.83;8.00;;;1.30;99.90;;;;;;5016100;28;20437;-59
2022/12/08 11:14:21;;;;;;;16.17;8.57;;;1.30;99.90;;;;;;5015540;28;20510;-57
2022/12/08 11:16:48;;;;;;;17.33;10.30;;;1.30;99.90;;;;;;5013984;28;20461;-57
2022/12/08 11:19:16;;;;;;;23.27;9.87;;;1.40;99.90;;;;;;5022927;28;20436;-58
2022/12/08 11:21:43;;;;;;;19.57;9.20;;;1.40;99.90;;;;;;5028538;28;20972;-58
2022/12/08 11:24:19;;;;;;;16.30;8.30;;;1.40;99.90;;;;;;5027410;28;20426;-58
2022/12/08 11:27:01;;;;;;;20.50;10.13;;;1.50;99.90;;;;;;5023169;28;20439;-59
2022/12/08 11:29:32;;;;;;;24.37;10.70;;;1.50;99.90;;;;;;5022846;28;20426;-60
2022/12/08 11:32:10;;;;;;;22.40;10.70;;;1.50;99.90;;;;;;5022035;28;20513;-58
2022/12/08 11:34:42;;;;;;;23.10;9.10;;;1.60;99.90;;;;;;5007975;28;20520;-59
2022/12/08 11:37:24;;;;;;;23.60;11.13;;;1.60;99.90;;;;;;5026551;28;20528;-58
2022/12/08 11:39:53;;;;;;;21.53;9.93;;;1.60;99.90;;;;;;5023045;28;20476;-59
2022/12/08 11:42:23;;;;;;;21.47;8.87;;;1.70;99.90;;;;;;5024781;28;20430;-58
2022/12/08 11:45:10;;;;;;;18.63;9.20;;;1.70;99.90;;;;;;5021392;28;20499;-58
2022/12/08 11:48:18;;;;;;;20.13;9.80;;;1.80;99.90;;;;;;5023346;28;20587;-59
2022/12/08 11:51:13;;;;;;;18.83;10.10;;;1.80;99.90;;;;;;5029010;28;20421;-58
2022/12/08 11:54:11;;;;;;;19.33;10.00;;;1.80;99.90;;;;;;5023222;28;20954;-59
2022/12/08 11:56:43;;;;;;;17.20;9.20;;;1.90;99.90;;;;;;4991556;28;21249;-59
2022/12/08 11:59:27;;;;;;;17.97;9.50;;;1.90;99.90;;;;;;5026218;28;20435;-58
2022/12/08 12:01:53;;;;;;;17.67;9.23;;;1.90;99.90;;;;;;5025324;28;20421;-58
2022/12/08 12:04:39;;;;;;;14.57;8.90;;;1.90;99.90;;;;;;5025639;28;20437;-58
2022/12/08 12:07:20;;;;;;;15.87;8.80;;;1.90;99.90;;;;;;5007581;28;20258;-58
2022/12/08 12:10:01;;;;;;;15.83;8.80;;;1.90;99.90;;;;;;5012887;28;20413;-58
2022/12/08 12:12:36;;;;;;;20.67;8.87;;;1.80;99.90;;;;;;5007622;28;20429;-59
2022/12/08 12:15:41;;;;;;;20.03;9.00;;;1.80;99.90;;;;;;5000336;28;20443;-59
2022/12/08 12:18:25;;;;;;;13.80;7.17;;;1.80;99.90;;;;;;5025682;28;20497;-59
2022/12/08 12:21:05;;;;;;;18.40;8.80;;;1.80;99.90;;;;;;5023852;28;20974;-58
2022/12/08 12:23:31;;;;;;;8.87;5.90;;;1.80;99.90;;;;;;5016892;28;20431;-59
2022/12/08 12:26:02;;;;;;;17.03;6.93;;;1.80;99.90;;;;;;5021993;28;20411;-58
2022/12/08 12:28:36;;;;;;;11.80;6.30;;;1.80;99.90;;;;;;5023284;28;20215;-59
2022/12/08 12:31:07;;;;;;;7.27;4.97;;;1.80;99.90;;;;;;5026800;28;20511;-59
2022/12/08 12:33:33;;;;;;;8.50;4.60;;;1.80;99.90;;;;;;5025039;28;20977;-59
2022/12/08 12:36:03;;;;;;;7.43;4.90;;;1.90;99.90;;;;;;5007799;28;20427;-59
2022/12/08 12:39:04;;;;;;;8.27;5.17;;;1.80;99.50;;;;;;5024624;28;20454;-59
2022/12/08 12:41:42;;;;;;;5.70;4.70;;;1.80;97.90;;;;;;4980542;28;21099;-58
2022/12/08 12:44:32;;;;;;;7.50;4.63;;;1.80;96.90;;;;;;5011446;28;20467;-59
2022/12/08 12:47:00;;;;;;;5.47;4.03;;;1.80;96.00;;;;;;5025217;28;20477;-58
2022/12/08 12:49:38;;;;;;;7.17;4.90;;;1.80;97.10;;;;;;5020845;28;20437;-58
2022/12/08 12:52:30;;;;;;;7.83;4.53;;;1.80;97.90;;;;;;5017068;28;20442;-59
2022/12/08 12:54:55;;;;;;;6.23;4.10;;;1.80;99.10;;;;;;5014743;28;20426;-59
2022/12/08 12:57:24;;;;;;;6.47;4.20;;;1.90;98.90;;;;;;5029336;28;20481;-58
2022/12/08 12:59:50;;;;;;;9.57;4.20;;;1.90;98.40;;;;;;5019437;28;20189;-59
2022/12/08 13:02:28;;;;;;;6.60;4.20;;;1.90;98.40;;;;;;5023522;28;20430;-58
2022/12/08 13:04:57;;;;;;;8.50;4.60;;;1.90;98.40;;;;;;5025623;28;20197;-59